Pintail — WDF5177 — position and weather

sailwx.info

Track history (hours):
 
Tides and Currents Weather Stations Pressure Air Temp Water Temp Dewpoint Dewpoint Depression Visibility Wind Speed Wind Dir Waves Ship Positions

Pintail

Owner: Pintail Marine Services, Inc, Friday Harbor, WA. More information available from US FCC via Universal Licensing System and Coast Guard Vessel Documentation Center.

Last reported at 2017-Jan-18 05:33 UTC. Time now 2017-Jan-18 05:53 UTC.
Position N 48°31' W 122°37'.

Length 19 m.

Type: Towing. MMSI: 367460260.

Date/timePositionNaut miles runAvg speedWind from/ knotsBaromVisibWave heightAir tempDewpointWater temp
2017-Jan-18 05:33N 48°31' W 122°37'0 0.0
2017-Jan-18 04:27N 48°31' W 122°37'0 0.0
2017-Jan-18 03:25N 48°31' W 122°37'0 0.4
2017-Jan-18 02:33N 48°31' W 122°37'7 3.5
2017-Jan-18 00:33N 48°35' W 122°46'3 3.3
2017-Jan-17 23:33N 48°34' W 122°51'5 5.0
2017-Jan-17 22:31N 48°32' W 122°59'1 1.1
2017-Jan-17 21:33N 48°32' W 122°60'0 0.0
2017-Jan-17 20:25N 48°32' W 122°60'0 0.0
2017-Jan-17 19:31N 48°32' W 122°60'0 0.1
2017-Jan-17 18:31N 48°32' W 123°00'5 4.8
2017-Jan-17 17:33N 48°34' W 122°54'11 5.5
2017-Jan-17 15:33N 48°31' W 122°38'1 0.5
2017-Jan-17 14:24N 48°31' W 122°37'0 0.0
2017-Jan-17 13:30N 48°31' W 122°37'0 0.0
2017-Jan-17 12:24N 48°31' W 122°37'0 0.0
2017-Jan-17 11:30N 48°31' W 122°37'0 0.0
2017-Jan-17 10:30N 48°31' W 122°37'0 0.0
2017-Jan-17 09:24N 48°31' W 122°37'0 0.0
2017-Jan-17 08:30N 48°31' W 122°37'0 0.0
2017-Jan-17 07:18N 48°31' W 122°37'0 0.0
2017-Jan-17 06:06N 48°31' W 122°37'0 0.1
2017-Jan-17 00:29N 48°31' W 122°36'6 6.0
2017-Jan-16 23:29N 48°32' W 122°45'5 0.9
2017-Jan-16 18:18N 48°31' W 122°39'0 0.2
2017-Jan-16 17:32N 48°31' W 122°38'6 6.2
2017-Jan-16 16:31N 48°32' W 122°48'5 4.9
2017-Jan-16 15:32N 48°33' W 122°55'4 3.8
2017-Jan-16 14:32N 48°32' W 122°60'0 0.0
2017-Jan-16 13:32N 48°32' W 122°60'0 0.0
2017-Jan-16 12:32N 48°32' W 122°60'0 0.0
2017-Jan-16 11:32N 48°32' W 122°60'0 0.0
2017-Jan-16 10:32N 48°32' W 122°60'0 0.0
2017-Jan-16 09:23N 48°32' W 122°60'0 0.0
2017-Jan-16 08:32N 48°32' W 122°60'0 0.0
2017-Jan-16 07:08N 48°32' W 122°60'0 0.0
2017-Jan-16 06:29N 48°32' W 122°60'0 0.0
2017-Jan-16 05:32N 48°32' W 122°60'0 0.0
2017-Jan-16 04:32N 48°32' W 122°60'0 0.0
2017-Jan-16 03:32N 48°32' W 122°60'0 0.0
2017-Jan-16 02:32N 48°32' W 122°60'0 0.0
2017-Jan-16 01:32N 48°32' W 122°60'0 0.0
2017-Jan-16 00:08N 48°32' W 122°60'0 0.0
2017-Jan-15 23:32N 48°32' W 122°60'0 0.0
2017-Jan-15 22:33N 48°32' W 122°60'2 0.3
2017-Jan-15 16:20N 48°34' W 123°00'2 2.6
2017-Jan-15 15:32N 48°32' W 122°60'0 0.0
2017-Jan-15 14:32N 48°32' W 122°60'0 0.0
2017-Jan-15 13:32N 48°32' W 122°60'0 0.0
2017-Jan-15 12:23N 48°32' W 122°60'0 0.0
2017-Jan-15 11:21N 48°32' W 122°60'0 0.0
2017-Jan-15 10:27N 48°32' W 122°60'0 0.0
2017-Jan-15 07:08N 48°32' W 122°60'0 0.0
2017-Jan-15 05:14N 48°32' W 122°60'0 0.0
2017-Jan-15 04:32N 48°32' W 122°60'0 0.0
2017-Jan-15 03:32N 48°32' W 122°60'0 0.0
2017-Jan-15 02:32N 48°32' W 122°60'0 0.0
2017-Jan-15 01:32N 48°32' W 122°60'0 0.0
2017-Jan-15 00:29N 48°32' W 122°60'0 0.0
2017-Jan-14 23:23N 48°32' W 122°60'0 0.0
2017-Jan-14 22:32N 48°32' W 122°60'0 0.0
2017-Jan-14 21:32N 48°32' W 122°60'0 0.0
2017-Jan-14 20:32N 48°32' W 122°60'0 0.0
2017-Jan-14 19:32N 48°32' W 122°60'0 0.0
2017-Jan-14 18:32N 48°32' W 122°60'0 0.0
2017-Jan-14 17:32N 48°32' W 122°60'0 0.0
2017-Jan-14 16:32N 48°32' W 122°60'0 0.0
2017-Jan-14 15:32N 48°32' W 122°60'0 0.0
2017-Jan-14 14:32N 48°32' W 122°60'0 0.0
2017-Jan-14 13:32N 48°32' W 122°60'0 0.0
2017-Jan-14 12:29N 48°32' W 122°60'0 0.0
2017-Jan-14 11:26N 48°32' W 122°60'0 0.0
2017-Jan-14 10:20N 48°32' W 122°60'0 0.0
2017-Jan-14 09:23N 48°32' W 122°60'0 0.0
2017-Jan-14 08:32N 48°32' W 122°60'0 0.0
2017-Jan-14 07:17N 48°32' W 122°60'0 0.0
2017-Jan-14 06:29N 48°32' W 122°60'0 0.0
2017-Jan-14 05:32N 48°32' W 122°60'0 0.0
2017-Jan-14 04:32N 48°32' W 122°60'0 0.0
2017-Jan-14 03:32N 48°32' W 122°60'0 0.0
2017-Jan-13 23:29N 48°32' W 122°60'0 0.0
2017-Jan-13 22:30N 48°32' W 122°60'0 0.0
2017-Jan-13 21:33N 48°32' W 122°60'4 4.1
2017-Jan-13 20:33N 48°34' W 122°54'5 1.4
2017-Jan-13 17:24N 48°36' W 122°49'0 0.1
2017-Jan-13 16:15N 48°36' W 122°49'4 5.4
2017-Jan-13 15:31N 48°34' W 122°54'5 4.8
2017-Jan-13 14:32N 48°32' W 122°60'0 0.0
2017-Jan-13 13:32N 48°32' W 122°60'0 0.0
2017-Jan-13 12:29N 48°32' W 122°60'0 0.0
2017-Jan-13 11:32N 48°32' W 122°60'0 0.0
2017-Jan-13 10:23N 48°32' W 122°60'0 0.0
2017-Jan-13 03:32N 48°32' W 122°60'0 0.0
2017-Jan-13 02:29N 48°32' W 122°60'0 0.0
2017-Jan-13 01:32N 48°32' W 122°60'0 0.0
2017-Jan-13 00:32N 48°32' W 122°60'0 0.0
2017-Jan-12 23:32N 48°32' W 122°60'0 0.0
2017-Jan-12 22:32N 48°32' W 122°60'0 0.1
2017-Jan-12 21:33N 48°32' W 123°00'4 4.2
2017-Jan-12 20:32N 48°34' W 122°54'5 5.0
2017-Jan-12 19:31N 48°32' W 122°47'6 6.0
2017-Jan-12 18:33N 48°31' W 122°38'1 1.1
2017-Jan-12 17:27N 48°31' W 122°36'0 0.0
2017-Jan-12 16:33N 48°31' W 122°36'0 0.0
2017-Jan-12 15:33N 48°31' W 122°36'0 0.0
2017-Jan-12 14:33N 48°31' W 122°36'0 0.0
2017-Jan-12 13:23N 48°31' W 122°36'0 0.0
2017-Jan-12 12:29N 48°31' W 122°36'0 0.0
2017-Jan-12 11:29N 48°31' W 122°36'0 0.0
2017-Jan-12 10:29N 48°31' W 122°36'0 0.0
2017-Jan-12 09:31N 48°31' W 122°36'0 0.0
2017-Jan-12 08:30N 48°31' W 122°36'0 0.0
2017-Jan-12 07:32N 48°31' W 122°36'0 0.0
2017-Jan-12 06:32N 48°31' W 122°36'0 0.0
2017-Jan-12 05:26N 48°31' W 122°36'0 0.0
2017-Jan-12 04:32N 48°31' W 122°36'0 0.0
2017-Jan-12 03:32N 48°31' W 122°36'0 0.0
2017-Jan-12 02:31N 48°31' W 122°36'0 0.0
2017-Jan-12 01:33N 48°31' W 122°36'5 4.6
2017-Jan-12 00:23N 48°32' W 122°44'5 5.7
2017-Jan-11 23:33N 48°33' W 122°51'5 4.8
2017-Jan-11 22:33N 48°32' W 122°58'1 1.2
2017-Jan-11 21:32N 48°32' W 122°60'0 0.0
2017-Jan-11 20:32N 48°32' W 122°60'0 0.0
2017-Jan-11 19:33N 48°32' W 122°60'0 0.1
2017-Jan-11 18:29N 48°32' W 123°00'5 5.0
2017-Jan-11 17:33N 48°34' W 122°54'6 5.2
2017-Jan-11 16:29N 48°32' W 122°46'6 6.5
2017-Jan-11 15:33N 48°31' W 122°37'1 0.5
2017-Jan-11 14:30N 48°31' W 122°36'0 0.0
2017-Jan-11 13:30N 48°31' W 122°36'0 0.0
2017-Jan-11 12:30N 48°31' W 122°36'0 0.0
2017-Jan-11 08:30N 48°31' W 122°36'0 0.0
2017-Jan-11 07:30N 48°31' W 122°36'0 0.0
2017-Jan-11 06:28N 48°31' W 122°36'0 0.0
2017-Jan-11 05:28N 48°31' W 122°36'0 0.0
2017-Jan-11 04:28N 48°31' W 122°36'0 0.0
2017-Jan-11 03:28N 48°31' W 122°36'0 0.0
2017-Jan-11 02:28N 48°31' W 122°36'0 0.3
2017-Jan-11 01:33N 48°31' W 122°37'8 3.9
2017-Jan-10 23:29N 48°32' W 122°49'4 4.4
2017-Jan-10 22:33N 48°34' W 122°54'4 4.0
2017-Jan-10 21:30N 48°32' W 123°00'0 0.1
2017-Jan-10 20:33N 48°32' W 122°60'0 0.0
2017-Jan-10 19:30N 48°32' W 122°60'1 0.8
2017-Jan-10 18:33N 48°32' W 122°59'6 5.5
2017-Jan-10 17:33N 48°34' W 122°51'4 4.5
2017-Jan-10 16:33N 48°32' W 122°45'6 5.5
2017-Jan-10 15:32N 48°31' W 122°36'0 0.0
2017-Jan-10 14:30N 48°31' W 122°36'0 0.0
2017-Jan-10 13:30N 48°31' W 122°36'0 0.0
2017-Jan-10 12:30N 48°31' W 122°36'0 0.0
2017-Jan-10 11:30N 48°31' W 122°36'0 0.0
2017-Jan-10 10:30N 48°31' W 122°36'0 0.0
2017-Jan-10 09:24N 48°31' W 122°36'0 0.0
2017-Jan-10 08:30N 48°31' W 122°36'0 0.0
2017-Jan-10 07:30N 48°31' W 122°36'0 0.0
2017-Jan-10 06:30N 48°31' W 122°36'0 0.0
2017-Jan-10 05:30N 48°31' W 122°36'0 0.0
2017-Jan-10 04:30N 48°31' W 122°36'0 0.0
2017-Jan-10 03:30N 48°31' W 122°36'0 0.0
2017-Jan-10 02:30N 48°31' W 122°36'0 0.0
2017-Jan-10 01:30N 48°31' W 122°36'0 0.0
2017-Jan-10 00:33N 48°31' W 122°36'1 1.1
2017-Jan-09 23:33N 48°31' W 122°38'7 5.4
2017-Jan-09 22:14N 48°32' W 122°49'4 5.8
2017-Jan-09 21:33N 48°34' W 122°54'5 4.9
2017-Jan-09 20:32N 48°32' W 123°00'0 0.1
2017-Jan-09 19:33N 48°32' W 122°60'0 0.0
2017-Jan-09 18:33N 48°32' W 122°60'0 0.0
2017-Jan-09 17:33N 48°32' W 122°60'0 0.0
2017-Jan-09 16:33N 48°32' W 122°60'0 0.0
2017-Jan-09 15:33N 48°32' W 122°60'0 0.0
2017-Jan-09 14:33N 48°32' W 122°60'0 0.0
2017-Jan-09 13:33N 48°32' W 122°60'0 0.0
2017-Jan-09 12:27N 48°32' W 122°60'0 0.0
2017-Jan-09 11:33N 48°32' W 122°60'0 0.0
2017-Jan-09 10:33N 48°32' W 122°60'0 0.0
2017-Jan-09 09:33N 48°32' W 122°60'0 0.0
2017-Jan-09 08:33N 48°32' W 122°60'0 0.0
2017-Jan-09 07:33N 48°32' W 122°60'0 0.0
2017-Jan-09 06:33N 48°32' W 122°60'0 0.0
2017-Jan-09 05:30N 48°32' W 122°60'0 0.0
2017-Jan-09 04:33N 48°32' W 122°60'0 0.0
2017-Jan-09 03:33N 48°32' W 122°60'0 0.0
2017-Jan-09 02:30N 48°32' W 122°60'0 0.0
2017-Jan-09 01:24N 48°32' W 122°60'0 0.0
2017-Jan-09 00:33N 48°32' W 122°60'0 0.0
2017-Jan-08 23:30N 48°32' W 122°60'0 0.0
2017-Jan-08 22:33N 48°32' W 122°60'0 0.0
2017-Jan-08 21:33N 48°32' W 122°60'0 0.0
2017-Jan-08 20:33N 48°32' W 122°60'0 0.0
2017-Jan-08 19:33N 48°32' W 122°60'0 0.0
2017-Jan-08 18:30N 48°32' W 122°60'0 0.0
2017-Jan-08 17:33N 48°32' W 122°60'0 0.0
2017-Jan-08 16:33N 48°32' W 122°60'0 0.0
2017-Jan-08 15:33N 48°32' W 122°60'0 0.0
2017-Jan-08 14:33N 48°32' W 122°60'0 0.0
2017-Jan-08 13:33N 48°32' W 122°60'0 0.0
2017-Jan-08 12:33N 48°32' W 122°60'0 0.0
2017-Jan-08 11:33N 48°32' W 122°60'0 0.0
2017-Jan-08 10:33N 48°32' W 122°60'0 0.0
2017-Jan-08 09:33N 48°32' W 122°60'0 0.0
2017-Jan-08 08:33N 48°32' W 122°60'0 0.0
2017-Jan-08 07:33N 48°32' W 122°60'0 0.0
2017-Jan-08 06:33N 48°32' W 122°60'  
Track history (hours):
 
Tides and Currents Weather Stations Pressure Air Temp Water Temp Dewpoint Dewpoint Depression Visibility Wind Speed Wind Dir Waves Ship Positions

Pintail

Owner: Pintail Marine Services, Inc, Friday Harbor, WA. More information available from US FCC via Universal Licensing System and Coast Guard Vessel Documentation Center.

Last reported at 2017-Jan-18 05:33 UTC. Time now 2017-Jan-18 05:53 UTC.
Position N 48°31' W 122°37'.

Length 19 m.

Type: Towing. MMSI: 367460260.

Date/timePositionNaut miles runAvg speedWind from/ knotsBaromVisibWave heightAir tempDewpointWater temp
2017-Jan-18 05:33N 48°31' W 122°37'0 0.0
2017-Jan-18 04:27N 48°31' W 122°37'0 0.0
2017-Jan-18 03:25N 48°31' W 122°37'0 0.4
2017-Jan-18 02:33N 48°31' W 122°37'7 3.5
2017-Jan-18 00:33N 48°35' W 122°46'3 3.3
2017-Jan-17 23:33N 48°34' W 122°51'5 5.0
2017-Jan-17 22:31N 48°32' W 122°59'1 1.1
2017-Jan-17 21:33N 48°32' W 122°60'0 0.0
2017-Jan-17 20:25N 48°32' W 122°60'0 0.0
2017-Jan-17 19:31N 48°32' W 122°60'0 0.1
2017-Jan-17 18:31N 48°32' W 123°00'5 4.8
2017-Jan-17 17:33N 48°34' W 122°54'11 5.5
2017-Jan-17 15:33N 48°31' W 122°38'1 0.5
2017-Jan-17 14:24N 48°31' W 122°37'0 0.0
2017-Jan-17 13:30N 48°31' W 122°37'0 0.0
2017-Jan-17 12:24N 48°31' W 122°37'0 0.0
2017-Jan-17 11:30N 48°31' W 122°37'0 0.0
2017-Jan-17 10:30N 48°31' W 122°37'0 0.0
2017-Jan-17 09:24N 48°31' W 122°37'0 0.0
2017-Jan-17 08:30N 48°31' W 122°37'0 0.0
2017-Jan-17 07:18N 48°31' W 122°37'0 0.0
2017-Jan-17 06:06N 48°31' W 122°37'0 0.1
2017-Jan-17 00:29N 48°31' W 122°36'6 6.0
2017-Jan-16 23:29N 48°32' W 122°45'5 0.9
2017-Jan-16 18:18N 48°31' W 122°39'0 0.2
2017-Jan-16 17:32N 48°31' W 122°38'6 6.2
2017-Jan-16 16:31N 48°32' W 122°48'5 4.9
2017-Jan-16 15:32N 48°33' W 122°55'4 3.8
2017-Jan-16 14:32N 48°32' W 122°60'0 0.0
2017-Jan-16 13:32N 48°32' W 122°60'0 0.0
2017-Jan-16 12:32N 48°32' W 122°60'0 0.0
2017-Jan-16 11:32N 48°32' W 122°60'0 0.0
2017-Jan-16 10:32N 48°32' W 122°60'0 0.0
2017-Jan-16 09:23N 48°32' W 122°60'0 0.0
2017-Jan-16 08:32N 48°32' W 122°60'0 0.0
2017-Jan-16 07:08N 48°32' W 122°60'0 0.0
2017-Jan-16 06:29N 48°32' W 122°60'0 0.0
2017-Jan-16 05:32N 48°32' W 122°60'0 0.0
2017-Jan-16 04:32N 48°32' W 122°60'0 0.0
2017-Jan-16 03:32N 48°32' W 122°60'0 0.0
2017-Jan-16 02:32N 48°32' W 122°60'0 0.0
2017-Jan-16 01:32N 48°32' W 122°60'0 0.0
2017-Jan-16 00:08N 48°32' W 122°60'0 0.0
2017-Jan-15 23:32N 48°32' W 122°60'0 0.0
2017-Jan-15 22:33N 48°32' W 122°60'2 0.3
2017-Jan-15 16:20N 48°34' W 123°00'2 2.6
2017-Jan-15 15:32N 48°32' W 122°60'0 0.0
2017-Jan-15 14:32N 48°32' W 122°60'0 0.0
2017-Jan-15 13:32N 48°32' W 122°60'0 0.0
2017-Jan-15 12:23N 48°32' W 122°60'0 0.0
2017-Jan-15 11:21N 48°32' W 122°60'0 0.0
2017-Jan-15 10:27N 48°32' W 122°60'0 0.0
2017-Jan-15 07:08N 48°32' W 122°60'0 0.0
2017-Jan-15 05:14N 48°32' W 122°60'0 0.0
2017-Jan-15 04:32N 48°32' W 122°60'0 0.0
2017-Jan-15 03:32N 48°32' W 122°60'0 0.0
2017-Jan-15 02:32N 48°32' W 122°60'0 0.0
2017-Jan-15 01:32N 48°32' W 122°60'0 0.0
2017-Jan-15 00:29N 48°32' W 122°60'0 0.0
2017-Jan-14 23:23N 48°32' W 122°60'0 0.0
2017-Jan-14 22:32N 48°32' W 122°60'0 0.0
2017-Jan-14 21:32N 48°32' W 122°60'0 0.0
2017-Jan-14 20:32N 48°32' W 122°60'0 0.0
2017-Jan-14 19:32N 48°32' W 122°60'0 0.0
2017-Jan-14 18:32N 48°32' W 122°60'0 0.0
2017-Jan-14 17:32N 48°32' W 122°60'0 0.0
2017-Jan-14 16:32N 48°32' W 122°60'0 0.0
2017-Jan-14 15:32N 48°32' W 122°60'0 0.0
2017-Jan-14 14:32N 48°32' W 122°60'0 0.0
2017-Jan-14 13:32N 48°32' W 122°60'0 0.0
2017-Jan-14 12:29N 48°32' W 122°60'0 0.0
2017-Jan-14 11:26N 48°32' W 122°60'0 0.0
2017-Jan-14 10:20N 48°32' W 122°60'0 0.0
2017-Jan-14 09:23N 48°32' W 122°60'0 0.0
2017-Jan-14 08:32N 48°32' W 122°60'0 0.0
2017-Jan-14 07:17N 48°32' W 122°60'0 0.0
2017-Jan-14 06:29N 48°32' W 122°60'0 0.0
2017-Jan-14 05:32N 48°32' W 122°60'0 0.0
2017-Jan-14 04:32N 48°32' W 122°60'0 0.0
2017-Jan-14 03:32N 48°32' W 122°60'0 0.0
2017-Jan-13 23:29N 48°32' W 122°60'0 0.0
2017-Jan-13 22:30N 48°32' W 122°60'0 0.0
2017-Jan-13 21:33N 48°32' W 122°60'4 4.1
2017-Jan-13 20:33N 48°34' W 122°54'5 1.4
2017-Jan-13 17:24N 48°36' W 122°49'0 0.1
2017-Jan-13 16:15N 48°36' W 122°49'4 5.4
2017-Jan-13 15:31N 48°34' W 122°54'5 4.8
2017-Jan-13 14:32N 48°32' W 122°60'0 0.0
2017-Jan-13 13:32N 48°32' W 122°60'0 0.0
2017-Jan-13 12:29N 48°32' W 122°60'0 0.0
2017-Jan-13 11:32N 48°32' W 122°60'0 0.0
2017-Jan-13 10:23N 48°32' W 122°60'0 0.0
2017-Jan-13 03:32N 48°32' W 122°60'0 0.0
2017-Jan-13 02:29N 48°32' W 122°60'0 0.0
2017-Jan-13 01:32N 48°32' W 122°60'0 0.0
2017-Jan-13 00:32N 48°32' W 122°60'0 0.0
2017-Jan-12 23:32N 48°32' W 122°60'0 0.0
2017-Jan-12 22:32N 48°32' W 122°60'0 0.1
2017-Jan-12 21:33N 48°32' W 123°00'4 4.2
2017-Jan-12 20:32N 48°34' W 122°54'5 5.0
2017-Jan-12 19:31N 48°32' W 122°47'6 6.0
2017-Jan-12 18:33N 48°31' W 122°38'1 1.1
2017-Jan-12 17:27N 48°31' W 122°36'0 0.0
2017-Jan-12 16:33N 48°31' W 122°36'0 0.0
2017-Jan-12 15:33N 48°31' W 122°36'0 0.0
2017-Jan-12 14:33N 48°31' W 122°36'0 0.0
2017-Jan-12 13:23N 48°31' W 122°36'0 0.0
2017-Jan-12 12:29N 48°31' W 122°36'0 0.0
2017-Jan-12 11:29N 48°31' W 122°36'0 0.0
2017-Jan-12 10:29N 48°31' W 122°36'0 0.0
2017-Jan-12 09:31N 48°31' W 122°36'0 0.0
2017-Jan-12 08:30N 48°31' W 122°36'0 0.0
2017-Jan-12 07:32N 48°31' W 122°36'0 0.0
2017-Jan-12 06:32N 48°31' W 122°36'0 0.0
2017-Jan-12 05:26N 48°31' W 122°36'0 0.0
2017-Jan-12 04:32N 48°31' W 122°36'0 0.0
2017-Jan-12 03:32N 48°31' W 122°36'0 0.0
2017-Jan-12 02:31N 48°31' W 122°36'0 0.0
2017-Jan-12 01:33N 48°31' W 122°36'5 4.6
2017-Jan-12 00:23N 48°32' W 122°44'5 5.7
2017-Jan-11 23:33N 48°33' W 122°51'5 4.8
2017-Jan-11 22:33N 48°32' W 122°58'1 1.2
2017-Jan-11 21:32N 48°32' W 122°60'0 0.0
2017-Jan-11 20:32N 48°32' W 122°60'0 0.0
2017-Jan-11 19:33N 48°32' W 122°60'0 0.1
2017-Jan-11 18:29N 48°32' W 123°00'5 5.0
2017-Jan-11 17:33N 48°34' W 122°54'6 5.2
2017-Jan-11 16:29N 48°32' W 122°46'6 6.5
2017-Jan-11 15:33N 48°31' W 122°37'1 0.5
2017-Jan-11 14:30N 48°31' W 122°36'0 0.0
2017-Jan-11 13:30N 48°31' W 122°36'0 0.0
2017-Jan-11 12:30N 48°31' W 122°36'0 0.0
2017-Jan-11 08:30N 48°31' W 122°36'0 0.0
2017-Jan-11 07:30N 48°31' W 122°36'0 0.0
2017-Jan-11 06:28N 48°31' W 122°36'0 0.0
2017-Jan-11 05:28N 48°31' W 122°36'0 0.0
2017-Jan-11 04:28N 48°31' W 122°36'0 0.0
2017-Jan-11 03:28N 48°31' W 122°36'0 0.0
2017-Jan-11 02:28N 48°31' W 122°36'0 0.3
2017-Jan-11 01:33N 48°31' W 122°37'8 3.9
2017-Jan-10 23:29N 48°32' W 122°49'4 4.4
2017-Jan-10 22:33N 48°34' W 122°54'4 4.0
2017-Jan-10 21:30N 48°32' W 123°00'0 0.1
2017-Jan-10 20:33N 48°32' W 122°60'0 0.0
2017-Jan-10 19:30N 48°32' W 122°60'1 0.8
2017-Jan-10 18:33N 48°32' W 122°59'6 5.5
2017-Jan-10 17:33N 48°34' W 122°51'4 4.5
2017-Jan-10 16:33N 48°32' W 122°45'6 5.5
2017-Jan-10 15:32N 48°31' W 122°36'0 0.0
2017-Jan-10 14:30N 48°31' W 122°36'0 0.0
2017-Jan-10 13:30N 48°31' W 122°36'0 0.0
2017-Jan-10 12:30N 48°31' W 122°36'0 0.0
2017-Jan-10 11:30N 48°31' W 122°36'0 0.0
2017-Jan-10 10:30N 48°31' W 122°36'0 0.0
2017-Jan-10 09:24N 48°31' W 122°36'0 0.0
2017-Jan-10 08:30N 48°31' W 122°36'0 0.0
2017-Jan-10 07:30N 48°31' W 122°36'0 0.0
2017-Jan-10 06:30N 48°31' W 122°36'0 0.0
2017-Jan-10 05:30N 48°31' W 122°36'0 0.0
2017-Jan-10 04:30N 48°31' W 122°36'0 0.0
2017-Jan-10 03:30N 48°31' W 122°36'0 0.0
2017-Jan-10 02:30N 48°31' W 122°36'0 0.0
2017-Jan-10 01:30N 48°31' W 122°36'0 0.0
2017-Jan-10 00:33N 48°31' W 122°36'1 1.1
2017-Jan-09 23:33N 48°31' W 122°38'7 5.4
2017-Jan-09 22:14N 48°32' W 122°49'4 5.8
2017-Jan-09 21:33N 48°34' W 122°54'5 4.9
2017-Jan-09 20:32N 48°32' W 123°00'0 0.1
2017-Jan-09 19:33N 48°32' W 122°60'0 0.0
2017-Jan-09 18:33N 48°32' W 122°60'0 0.0
2017-Jan-09 17:33N 48°32' W 122°60'0 0.0
2017-Jan-09 16:33N 48°32' W 122°60'0 0.0
2017-Jan-09 15:33N 48°32' W 122°60'0 0.0
2017-Jan-09 14:33N 48°32' W 122°60'0 0.0
2017-Jan-09 13:33N 48°32' W 122°60'0 0.0
2017-Jan-09 12:27N 48°32' W 122°60'0 0.0
2017-Jan-09 11:33N 48°32' W 122°60'0 0.0
2017-Jan-09 10:33N 48°32' W 122°60'0 0.0
2017-Jan-09 09:33N 48°32' W 122°60'0 0.0
2017-Jan-09 08:33N 48°32' W 122°60'0 0.0
2017-Jan-09 07:33N 48°32' W 122°60'0 0.0
2017-Jan-09 06:33N 48°32' W 122°60'0 0.0
2017-Jan-09 05:30N 48°32' W 122°60'0 0.0
2017-Jan-09 04:33N 48°32' W 122°60'0 0.0
2017-Jan-09 03:33N 48°32' W 122°60'0 0.0
2017-Jan-09 02:30N 48°32' W 122°60'0 0.0
2017-Jan-09 01:24N 48°32' W 122°60'0 0.0
2017-Jan-09 00:33N 48°32' W 122°60'0 0.0
2017-Jan-08 23:30N 48°32' W 122°60'0 0.0
2017-Jan-08 22:33N 48°32' W 122°60'0 0.0
2017-Jan-08 21:33N 48°32' W 122°60'0 0.0
2017-Jan-08 20:33N 48°32' W 122°60'0 0.0
2017-Jan-08 19:33N 48°32' W 122°60'0 0.0
2017-Jan-08 18:30N 48°32' W 122°60'0 0.0
2017-Jan-08 17:33N 48°32' W 122°60'0 0.0
2017-Jan-08 16:33N 48°32' W 122°60'0 0.0
2017-Jan-08 15:33N 48°32' W 122°60'0 0.0
2017-Jan-08 14:33N 48°32' W 122°60'0 0.0
2017-Jan-08 13:33N 48°32' W 122°60'0 0.0
2017-Jan-08 12:33N 48°32' W 122°60'0 0.0
2017-Jan-08 11:33N 48°32' W 122°60'0 0.0
2017-Jan-08 10:33N 48°32' W 122°60'0 0.0
2017-Jan-08 09:33N 48°32' W 122°60'0 0.0
2017-Jan-08 08:33N 48°32' W 122°60'0 0.0
2017-Jan-08 07:33N 48°32' W 122°60'0 0.0
2017-Jan-08 06:33N 48°32' W 122°60'  

Dump ship's entire track history